Terminal Aerodrome Forecast
Issued by NWS

Home | Current Version | Previous Version | Text Only | Print | Product List | Glossary On
Versions: 1 2 3 4 5 6 7 8 9 10 11 12 13 14 15 16 17 18 19 20 21 22 23 24
649
FTUS41 KBUF 240903 AAA
TAFJHW
TAF AMD
KJHW 240903Z 2409/2506 17008KT P6SM -RA OVC050 WS020/21035KT
     FM241000 18010KT 6SM -RA OVC025 WS020/23050KT
     FM241300 19012KT P6SM VCSH OVC025 WS020/24050KT
     FM241500 20012KT P6SM BKN025 WS020/25045KT
     FM242100 22010KT P6SM BKN015
     FM250300 23008KT P6SM BKN007
      AMD LTD TO CLD VIS AND WIND=

USA.gov is the U.S. government's official web portal to all federal, state and local government web resources and services.